createdAt,value
2022-12-20T00:01:42.023Z,2.17
2022-12-20T00:04:11.533Z,2.20
2022-12-20T00:06:39.236Z,2.03
2022-12-20T00:09:09.863Z,2.90
2022-12-20T00:11:42.017Z,2.85
2022-12-20T00:14:10.871Z,2.13
2022-12-20T00:16:37.995Z,1.33
2022-12-20T00:19:07.299Z,2.65
2022-12-20T00:21:35.754Z,2.83
2022-12-20T00:24:03.575Z,2.55
2022-12-20T00:26:32.682Z,2.97
2022-12-20T00:29:00.643Z,2.03
2022-12-20T00:31:32.199Z,2.45
2022-12-20T00:34:00.828Z,4.18
2022-12-20T00:36:32.482Z,0.73
2022-12-20T00:39:00.851Z,1.65
2022-12-20T00:41:30.686Z,2.53
2022-12-20T00:43:58.143Z,3.50
2022-12-20T00:46:25.787Z,1.25
2022-12-20T00:48:54.003Z,2.28
2022-12-20T00:51:24.492Z,3.67
2022-12-20T00:53:51.433Z,2.30
2022-12-20T00:56:18.937Z,1.90
2022-12-20T00:58:46.100Z,1.30
2022-12-20T01:01:21.285Z,2.58
2022-12-20T01:03:48.933Z,2.65
2022-12-20T01:06:16.340Z,1.52
2022-12-20T01:08:43.694Z,1.50
2022-12-20T01:11:15.157Z,2.10
2022-12-20T01:13:46.005Z,2.50
2022-12-20T01:16:18.523Z,1.73
2022-12-20T01:18:46.407Z,1.00
2022-12-20T01:21:15.589Z,1.05
2022-12-20T01:23:43.120Z,1.83
2022-12-20T01:26:14.207Z,1.17
2022-12-20T01:28:42.829Z,0.98
2022-12-20T01:31:11.953Z,2.55
2022-12-20T01:33:39.398Z,1.83
2022-12-20T01:36:09.078Z,1.95
2022-12-20T01:38:36.316Z,1.85
2022-12-20T01:41:04.293Z,2.30
2022-12-20T01:43:57.603Z,1.40
2022-12-20T01:46:26.980Z,2.08
2022-12-20T01:49:00.233Z,1.20
2022-12-20T01:51:31.004Z,0.88
2022-12-20T01:54:05.705Z,1.55
2022-12-20T01:56:32.698Z,2.28
2022-12-20T01:59:01.118Z,2.17
2022-12-20T02:01:28.159Z,2.28
2022-12-20T02:03:55.871Z,1.42
2022-12-20T02:06:25.960Z,2.47
2022-12-20T02:08:56.994Z,2.20
2022-12-20T02:11:49.963Z,2.47
2022-12-20T02:14:31.630Z,3.08
2022-12-20T02:17:11.255Z,2.08
2022-12-20T02:19:54.961Z,1.33
2022-12-20T02:23:06.231Z,2.13
2022-12-20T02:26:10.091Z,1.25
2022-12-20T02:28:39.792Z,2.35
2022-12-20T02:31:14.091Z,1.60
2022-12-20T02:33:48.306Z,1.23
2022-12-20T02:36:17.278Z,3.13
2022-12-20T02:38:45.035Z,1.95
2022-12-20T02:41:15.311Z,1.88
2022-12-20T02:44:03.341Z,1.00
2022-12-20T02:46:32.920Z,1.98
2022-12-20T02:49:05.208Z,0.75
2022-12-20T02:51:33.679Z,1.95
2022-12-20T02:54:01.939Z,2.55
2022-12-20T02:56:28.747Z,1.23
2022-12-20T02:59:02.852Z,2.05
2022-12-20T03:01:38.143Z,1.27
2022-12-20T03:04:06.024Z,2.38
2022-12-20T03:06:33.034Z,3.92
2022-12-20T03:08:59.869Z,1.55
2022-12-20T03:11:29.771Z,1.40
2022-12-20T03:13:56.667Z,0.73
2022-12-20T03:16:23.585Z,2.30
2022-12-20T03:18:50.576Z,1.25
2022-12-20T03:21:17.434Z,1.55
2022-12-20T03:23:45.361Z,1.60
2022-12-20T03:26:12.250Z,1.02
2022-12-20T03:28:39.067Z,1.15
2022-12-20T03:31:06.281Z,1.63
2022-12-20T03:33:33.139Z,1.30
2022-12-20T03:36:00.019Z,1.40
2022-12-20T03:38:26.916Z,2.60
2022-12-20T03:40:53.775Z,1.67
2022-12-20T03:43:20.617Z,1.60
2022-12-20T03:45:47.558Z,1.92
2022-12-20T03:48:14.462Z,3.60
2022-12-20T03:50:41.696Z,3.67
2022-12-20T03:53:08.729Z,2.63
2022-12-20T03:55:35.568Z,3.25
2022-12-20T03:58:02.433Z,1.33
2022-12-20T04:00:29.708Z,2.40
2022-12-20T04:02:56.782Z,2.33
2022-12-20T04:05:23.831Z,2.80
2022-12-20T04:07:51.178Z,1.75
2022-12-20T04:10:18.215Z,2.15
2022-12-20T04:12:45.107Z,1.67
2022-12-20T04:15:12.074Z,2.03
2022-12-20T04:17:39.012Z,1.30
2022-12-20T04:20:19.346Z,1.73
2022-12-20T04:22:51.529Z,3.70
2022-12-20T04:25:20.793Z,8.45
2022-12-20T04:27:47.585Z,2.22
2022-12-20T04:30:14.677Z,2.47
2022-12-20T04:32:41.585Z,1.98
2022-12-20T04:35:08.832Z,2.08
2022-12-20T04:37:35.842Z,2.58
2022-12-20T04:40:02.642Z,2.17
2022-12-20T04:42:29.522Z,2.67
2022-12-20T04:44:56.489Z,1.23
2022-12-20T04:47:23.605Z,1.95
2022-12-20T04:49:51.060Z,1.67
2022-12-20T04:52:39.661Z,2.47
2022-12-20T04:55:09.869Z,1.15
2022-12-20T04:57:36.705Z,2.60
2022-12-20T05:00:04.555Z,2.08
2022-12-20T05:02:31.557Z,2.45
2022-12-20T05:04:58.499Z,1.63
2022-12-20T05:07:25.363Z,2.28
2022-12-20T05:09:52.255Z,3.55
2022-12-20T05:12:19.049Z,2.65
2022-12-20T05:14:45.958Z,5.28
2022-12-20T05:17:12.777Z,1.40
2022-12-20T05:19:39.689Z,2.05
2022-12-20T05:22:24.821Z,3.70
2022-12-20T05:25:10.368Z,4.53
2022-12-20T05:27:37.307Z,4.10
2022-12-20T05:30:04.923Z,2.97
2022-12-20T05:32:31.865Z,4.47
2022-12-20T05:34:58.767Z,4.10
2022-12-20T05:37:25.621Z,3.28
2022-12-20T05:39:52.446Z,5.25
2022-12-20T05:42:19.290Z,6.00
2022-12-20T05:44:46.265Z,4.03
2022-12-20T05:47:13.380Z,2.67
2022-12-20T05:49:40.700Z,4.10
2022-12-20T05:52:08.014Z,2.85
2022-12-20T05:54:35.096Z,4.72
2022-12-20T05:57:01.869Z,2.70
2022-12-20T05:59:28.671Z,3.25
2022-12-20T06:01:55.653Z,7.55
2022-12-20T06:04:22.830Z,10.38
2022-12-20T06:06:49.713Z,6.20
2022-12-20T06:09:16.661Z,6.10
2022-12-20T06:11:43.523Z,4.78
2022-12-20T06:14:10.417Z,5.25
2022-12-20T06:16:37.343Z,5.72
2022-12-20T06:19:04.210Z,3.97
2022-12-20T06:21:32.306Z,8.73
2022-12-20T06:23:59.569Z,3.10
2022-12-20T06:26:26.353Z,5.55
2022-12-20T06:28:54.975Z,2.42
2022-12-20T06:31:21.954Z,4.80
2022-12-20T06:33:48.889Z,2.42
2022-12-20T06:36:15.771Z,3.15
2022-12-20T06:38:42.640Z,5.85
2022-12-20T06:41:09.481Z,2.97
2022-12-20T06:43:36.427Z,4.20
2022-12-20T06:46:03.359Z,3.13
2022-12-20T06:48:30.471Z,3.92
2022-12-20T06:50:57.349Z,3.10
2022-12-20T06:53:24.299Z,2.22
2022-12-20T06:55:51.731Z,3.65
2022-12-20T06:58:19.267Z,4.72
2022-12-20T07:00:46.633Z,10.15
2022-12-20T07:03:14.245Z,5.68
2022-12-20T07:05:42.058Z,12.32
2022-12-20T07:08:09.370Z,13.88
2022-12-20T07:10:37.571Z,10.30
2022-12-20T07:13:04.523Z,8.77
2022-12-20T07:15:31.788Z,14.20
2022-12-20T07:17:59.689Z,14.82
2022-12-20T07:20:26.736Z,9.73
2022-12-20T07:22:53.790Z,24.30
2022-12-20T07:25:20.913Z,14.00
2022-12-20T07:27:52.724Z,16.48
2022-12-20T07:30:20.806Z,7.95
2022-12-20T07:32:48.273Z,11.27
2022-12-20T07:35:15.566Z,10.45
2022-12-20T07:37:44.347Z,24.20
2022-12-20T07:40:12.083Z,15.02
2022-12-20T07:42:44.464Z,15.90
2022-12-20T07:45:13.410Z,23.17
2022-12-20T07:47:40.330Z,9.40
2022-12-20T07:50:08.050Z,11.13
2022-12-20T07:52:35.905Z,9.65
2022-12-20T07:55:07.359Z,9.68
2022-12-20T07:57:53.360Z,11.40
2022-12-20T08:00:21.186Z,9.02
2022-12-20T08:02:55.366Z,6.18
2022-12-20T08:05:23.652Z,8.93
2022-12-20T08:07:58.459Z,7.85
2022-12-20T08:10:26.881Z,4.35
2022-12-20T08:12:54.808Z,6.53
2022-12-20T08:15:23.498Z,16.20
2022-12-20T08:17:51.124Z,5.68
2022-12-20T08:20:18.371Z,4.93
2022-12-20T08:22:46.681Z,7.57
2022-12-20T08:25:14.006Z,5.68
2022-12-20T08:27:42.386Z,14.85
2022-12-20T08:30:11.215Z,14.93
2022-12-20T08:32:39.015Z,13.95
2022-12-20T08:35:07.238Z,16.38
2022-12-20T08:37:34.542Z,7.65
2022-12-20T08:40:01.593Z,18.02
2022-12-20T08:42:29.256Z,8.13
2022-12-20T08:44:58.149Z,12.05
2022-12-20T08:47:25.445Z,22.25
2022-12-20T08:49:52.884Z,13.90
2022-12-20T08:52:20.776Z,23.05
2022-12-20T08:54:49.539Z,15.02
2022-12-20T08:57:17.356Z,9.15
2022-12-20T08:59:45.409Z,15.32
2022-12-20T09:02:13.620Z,18.25
2022-12-20T09:04:41.047Z,14.90
2022-12-20T09:07:08.728Z,16.20
2022-12-20T09:09:35.649Z,18.77
2022-12-20T09:12:03.040Z,8.23
2022-12-20T09:14:30.029Z,21.00
2022-12-20T09:16:57.356Z,13.30
2022-12-20T09:19:24.634Z,11.30
2022-12-20T09:21:51.805Z,14.10
2022-12-20T09:24:19.129Z,5.63
2022-12-20T09:26:46.607Z,32.33
2022-12-20T09:29:24.987Z,8.02
2022-12-20T09:31:54.804Z,13.73
2022-12-20T09:34:22.164Z,20.05
2022-12-20T09:36:49.958Z,17.92
2022-12-20T09:39:17.240Z,13.98
2022-12-20T09:41:46.381Z,11.20
2022-12-20T09:44:29.196Z,8.20
2022-12-20T09:47:08.258Z,11.23
2022-12-20T09:49:42.736Z,11.15
2022-12-20T09:52:35.163Z,8.82
2022-12-20T09:55:19.002Z,17.17
2022-12-20T09:58:33.553Z,7.88
2022-12-20T10:01:24.690Z,12.75
2022-12-20T10:03:54.069Z,12.68
2022-12-20T10:07:06.110Z,12.18
2022-12-20T10:10:06.596Z,11.45
2022-12-20T10:12:59.506Z,15.70
2022-12-20T10:15:37.693Z,16.05
2022-12-20T10:18:31.515Z,12.45
2022-12-20T10:21:01.964Z,13.98
2022-12-20T10:23:37.707Z,21.40
2022-12-20T10:26:11.135Z,26.65
2022-12-20T10:28:39.483Z,25.65
2022-12-20T10:31:12.089Z,16.98
2022-12-20T10:33:41.718Z,21.15
2022-12-20T10:36:19.527Z,19.50
2022-12-20T10:38:50.145Z,25.65
2022-12-20T10:41:23.055Z,13.18
2022-12-20T10:44:00.016Z,15.77
2022-12-20T10:46:46.095Z,7.85
2022-12-20T10:49:35.825Z,10.85
2022-12-20T10:52:13.965Z,20.20
2022-12-20T10:54:42.515Z,16.42
2022-12-20T10:57:26.787Z,13.05
2022-12-20T10:59:56.911Z,6.75
2022-12-20T11:02:40.684Z,6.88
2022-12-20T11:05:13.059Z,14.95
2022-12-20T11:10:45.797Z,12.77
2022-12-20T11:13:27.015Z,9.57
2022-12-20T11:15:57.964Z,8.10
2022-12-20T11:19:02.466Z,9.50
2022-12-20T11:21:43.670Z,8.45
2022-12-20T11:24:42.428Z,6.32
2022-12-20T11:27:17.318Z,6.20
2022-12-20T11:29:59.018Z,7.40
2022-12-20T11:32:51.431Z,5.95
2022-12-20T11:35:50.869Z,12.02
2022-12-20T11:38:37.268Z,7.60
2022-12-20T11:41:25.766Z,4.63
2022-12-20T11:47:13.542Z,6.75
2022-12-20T11:49:59.401Z,6.18
2022-12-20T11:52:44.803Z,4.88
2022-12-20T11:55:37.166Z,4.65
2022-12-20T11:58:25.683Z,4.75
2022-12-20T12:01:09.404Z,3.40
2022-12-20T12:03:41.539Z,6.22
2022-12-20T12:06:36.739Z,3.45
2022-12-20T12:09:26.643Z,2.58
2022-12-20T12:12:09.231Z,3.65
2022-12-20T12:14:55.948Z,5.60
2022-12-20T12:17:45.017Z,3.38
2022-12-20T12:20:17.671Z,6.50
2022-12-20T12:22:49.010Z,2.80
2022-12-20T12:25:20.959Z,4.13
2022-12-20T12:27:51.038Z,1.77
2022-12-20T12:30:20.851Z,4.78
2022-12-20T12:32:58.075Z,3.45
2022-12-20T12:35:42.063Z,3.65
2022-12-20T12:38:50.129Z,5.68
2022-12-20T12:41:47.448Z,3.65
2022-12-20T12:44:23.763Z,4.88
2022-12-20T12:47:00.932Z,4.53
2022-12-20T12:49:32.869Z,4.28
2022-12-20T12:52:04.819Z,7.03
2022-12-20T12:54:40.984Z,5.82
2022-12-20T12:57:16.258Z,4.05
2022-12-20T12:59:49.290Z,8.35
2022-12-20T13:02:19.156Z,6.03
2022-12-20T13:04:59.207Z,5.53
2022-12-20T13:07:34.403Z,9.10
2022-12-20T13:10:26.450Z,7.70
2022-12-20T13:13:00.777Z,4.63
2022-12-20T13:15:33.013Z,11.02
2022-12-20T13:18:23.561Z,7.10
2022-12-20T13:21:20.641Z,10.03
2022-12-20T13:24:13.016Z,5.97
2022-12-20T13:26:57.139Z,5.55
2022-12-20T13:29:38.573Z,12.05
2022-12-20T13:32:47.390Z,9.40
2022-12-20T13:35:29.780Z,11.30
2022-12-20T13:38:09.222Z,10.18
2022-12-20T13:40:53.293Z,4.55
2022-12-20T13:43:25.670Z,5.65
2022-12-20T13:46:03.411Z,13.30
2022-12-20T13:48:49.727Z,8.63
2022-12-20T13:51:28.266Z,5.30
2022-12-20T13:54:03.913Z,5.30
2022-12-20T13:56:51.364Z,4.22
2022-12-20T13:59:21.190Z,7.55
2022-12-20T14:01:59.038Z,4.55
2022-12-20T14:04:41.859Z,16.00
2022-12-20T14:07:16.164Z,6.93
2022-12-20T14:09:48.315Z,13.23
2022-12-20T14:12:26.265Z,12.30
2022-12-20T14:14:57.480Z,10.77
2022-12-20T14:17:37.385Z,3.55
2022-12-20T14:20:17.047Z,5.47
2022-12-20T14:23:15.636Z,11.98
2022-12-20T14:25:50.594Z,8.43
2022-12-20T14:28:37.400Z,9.52
2022-12-20T14:31:09.371Z,23.80
2022-12-20T14:33:43.750Z,7.05
2022-12-20T14:36:19.086Z,7.20
2022-12-20T14:38:52.172Z,26.92
2022-12-20T14:41:44.728Z,7.30
2022-12-20T14:44:26.058Z,7.30
2022-12-20T14:47:08.994Z,22.02
2022-12-20T14:49:41.868Z,15.05
2022-12-20T14:52:16.294Z,8.65
2022-12-20T14:55:08.746Z,7.30
2022-12-20T14:57:40.574Z,9.07
2022-12-20T15:00:35.346Z,7.80
2022-12-20T15:03:23.788Z,2.85
2022-12-20T15:06:01.429Z,3.67
2022-12-20T15:08:37.995Z,4.53
2022-12-20T15:11:15.333Z,8.80
2022-12-20T15:13:55.211Z,7.38
2022-12-20T15:16:27.164Z,10.07
2022-12-20T15:19:17.744Z,9.50
2022-12-20T15:21:48.883Z,3.13
2022-12-20T15:26:54.786Z,4.47
2022-12-20T15:29:37.690Z,6.60
2022-12-20T15:32:16.157Z,6.00
2022-12-20T15:34:50.888Z,7.03
2022-12-20T15:37:20.694Z,6.43
2022-12-20T15:39:51.164Z,5.38
2022-12-20T15:42:22.474Z,4.28
2022-12-20T15:44:52.015Z,15.27
2022-12-20T15:47:20.579Z,9.55
2022-12-20T15:49:50.696Z,6.68
2022-12-20T15:52:26.124Z,5.00
2022-12-20T15:54:55.388Z,10.10
2022-12-20T15:57:25.008Z,16.30
2022-12-20T16:00:01.078Z,18.88
2022-12-20T16:02:31.800Z,8.40
2022-12-20T16:05:00.987Z,13.90
2022-12-20T16:07:30.572Z,9.02
2022-12-20T16:10:00.006Z,6.82
2022-12-20T16:12:37.038Z,16.88
2022-12-20T16:15:07.094Z,15.65
2022-12-20T16:17:37.064Z,4.93
2022-12-20T16:20:06.390Z,11.70
2022-12-20T16:22:36.654Z,6.45
2022-12-20T16:25:05.342Z,12.30
2022-12-20T16:27:35.152Z,7.65
2022-12-20T16:30:03.324Z,4.63
2022-12-20T16:32:34.476Z,7.57
2022-12-20T16:37:37.267Z,9.75
2022-12-20T16:40:16.522Z,9.02
2022-12-20T16:42:43.509Z,9.07
2022-12-20T16:45:29.239Z,7.03
2022-12-20T16:47:57.108Z,17.17
2022-12-20T16:50:28.943Z,9.55
2022-12-20T16:52:57.792Z,11.65
2022-12-20T16:55:30.299Z,15.60
2022-12-20T16:58:00.768Z,6.55
2022-12-20T17:00:28.140Z,8.70
2022-12-20T17:02:56.170Z,3.90
2022-12-20T17:05:28.807Z,10.35
2022-12-20T17:07:58.840Z,5.93
2022-12-20T17:10:29.731Z,7.32
2022-12-20T17:13:00.239Z,5.88
2022-12-20T17:15:35.279Z,5.82
2022-12-20T17:18:16.264Z,2.90
2022-12-20T17:20:43.932Z,5.10
2022-12-20T17:25:56.780Z,44.00
2022-12-20T17:28:28.848Z,62.20
2022-12-20T17:30:59.827Z,74.15
2022-12-20T17:33:29.721Z,99.40
2022-12-20T17:35:57.625Z,125.32
2022-12-20T17:38:27.730Z,158.52
2022-12-20T17:40:57.462Z,117.70
2022-12-20T17:43:26.979Z,134.32
2022-12-20T17:45:55.799Z,100.07
2022-12-20T17:48:27.445Z,113.05
2022-12-20T17:51:00.336Z,98.60
2022-12-20T17:53:27.630Z,98.68
2022-12-20T17:55:56.229Z,106.57
2022-12-20T17:58:23.969Z,101.82
2022-12-20T18:00:51.382Z,95.13
2022-12-20T18:03:53.538Z,132.13
2022-12-20T18:06:08.270Z,112.55
2022-12-20T18:08:36.566Z,121.55
2022-12-20T18:11:04.731Z,105.63
2022-12-20T18:13:32.866Z,74.90
2022-12-20T18:16:00.690Z,89.60
2022-12-20T18:18:31.205Z,84.00
2022-12-20T18:21:05.745Z,72.25
2022-12-20T18:23:34.547Z,63.63
2022-12-20T18:26:16.315Z,59.10
2022-12-20T18:28:45.959Z,52.10
2022-12-20T18:31:16.971Z,54.10
2022-12-20T18:33:44.557Z,47.17
2022-12-20T18:36:15.723Z,48.80
2022-12-20T18:41:21.066Z,35.53
2022-12-20T18:43:48.303Z,39.50
2022-12-20T18:46:21.142Z,32.15
2022-12-20T18:48:51.798Z,37.33
2022-12-20T18:51:23.651Z,34.80
2022-12-20T18:53:54.001Z,38.38
2022-12-20T18:56:25.897Z,31.52
2022-12-20T18:58:57.653Z,25.40
2022-12-20T19:01:29.059Z,27.23
2022-12-20T19:03:57.370Z,32.90
2022-12-20T19:06:25.650Z,28.48
2022-12-20T19:08:53.229Z,21.83
2022-12-20T19:11:27.731Z,30.15
2022-12-20T19:14:00.316Z,24.15
2022-12-20T19:16:33.086Z,23.67
2022-12-20T19:19:04.801Z,26.33
2022-12-20T19:21:35.937Z,20.80
2022-12-20T19:26:38.226Z,23.40
2022-12-20T19:31:36.831Z,20.15
2022-12-20T19:34:11.734Z,17.13
2022-12-20T19:36:43.435Z,15.25
2022-12-20T19:39:18.013Z,16.33
2022-12-20T19:42:05.971Z,12.15
2022-12-20T19:44:34.606Z,15.38
2022-12-20T19:47:04.822Z,27.50
2022-12-20T19:49:32.211Z,17.43
2022-12-20T19:51:59.464Z,9.68
2022-12-20T19:54:26.896Z,14.05
2022-12-20T19:56:54.112Z,18.02
2022-12-20T19:59:23.001Z,9.57
2022-12-20T20:01:51.196Z,10.98
2022-12-20T20:04:18.563Z,16.27
2022-12-20T20:06:46.281Z,14.98
2022-12-20T20:09:17.547Z,12.35
2022-12-20T20:11:46.889Z,9.90
2022-12-20T20:14:18.550Z,8.55
2022-12-20T20:16:48.836Z,6.85
2022-12-20T20:19:15.980Z,11.70
2022-12-20T20:21:44.643Z,10.98
2022-12-20T20:24:12.280Z,6.25
2022-12-20T20:26:39.835Z,9.55
2022-12-20T20:29:09.005Z,6.30
2022-12-20T20:31:36.757Z,9.70
2022-12-20T20:34:04.437Z,18.80
2022-12-20T20:36:33.123Z,19.70
2022-12-20T20:39:00.225Z,21.27
2022-12-20T20:41:28.550Z,10.63
2022-12-20T20:43:56.288Z,17.48
2022-12-20T20:46:25.648Z,7.00
2022-12-20T20:48:53.381Z,10.40
2022-12-20T20:51:21.005Z,13.75
2022-12-20T20:53:48.245Z,10.07
2022-12-20T20:56:16.000Z,9.48
2022-12-20T20:58:43.496Z,6.40
2022-12-20T21:01:12.397Z,9.02
2022-12-20T21:03:43.912Z,6.15
2022-12-20T21:09:02.029Z,9.48
2022-12-20T21:11:29.348Z,11.15
2022-12-20T21:13:56.640Z,9.48
2022-12-20T21:16:25.486Z,8.55
2022-12-20T21:18:54.024Z,5.75
2022-12-20T21:21:21.793Z,5.25
2022-12-20T21:23:50.358Z,5.90
2022-12-20T21:26:20.753Z,7.40
2022-12-20T21:28:48.630Z,4.28
2022-12-20T21:31:18.192Z,5.10
2022-12-20T21:33:50.505Z,21.55
2022-12-20T21:36:19.898Z,7.80
2022-12-20T21:38:56.238Z,7.95
2022-12-20T21:41:30.859Z,6.40
2022-12-20T21:44:01.091Z,13.68
2022-12-20T21:46:33.047Z,7.55
2022-12-20T21:49:02.278Z,12.15
2022-12-20T21:51:32.438Z,3.85
2022-12-20T21:54:04.300Z,5.68
2022-12-20T21:56:36.008Z,5.43
2022-12-20T21:59:04.875Z,8.55
2022-12-20T22:01:36.965Z,6.68
2022-12-20T22:04:07.064Z,5.45
2022-12-20T22:06:36.573Z,4.55
2022-12-20T22:09:09.705Z,5.18
2022-12-20T22:11:42.929Z,11.35
2022-12-20T22:14:14.145Z,5.22
2022-12-20T22:16:44.826Z,3.47
2022-12-20T22:19:15.313Z,4.10
2022-12-20T22:21:58.533Z,3.33
2022-12-20T22:24:28.176Z,7.00
2022-12-20T22:26:56.512Z,3.75
2022-12-20T22:29:25.774Z,4.53
2022-12-20T22:31:55.103Z,4.43
2022-12-20T22:34:24.921Z,4.43
2022-12-20T22:36:53.556Z,5.05
2022-12-20T22:39:21.208Z,2.88
2022-12-20T22:41:48.791Z,3.25
2022-12-20T22:44:15.838Z,5.35
2022-12-20T22:49:25.373Z,3.17
2022-12-20T22:52:06.875Z,3.13
2022-12-20T22:54:36.423Z,3.83
2022-12-20T22:57:04.087Z,4.32
2022-12-20T22:59:34.612Z,7.53
2022-12-20T23:02:05.165Z,5.05
2022-12-20T23:04:35.645Z,3.35
2022-12-20T23:07:03.535Z,3.57
2022-12-20T23:09:33.479Z,4.63
2022-12-20T23:12:20.978Z,4.03
2022-12-20T23:15:31.425Z,4.05
2022-12-20T23:18:00.655Z,3.20
2022-12-20T23:20:47.540Z,3.25
2022-12-20T23:23:15.403Z,3.42
2022-12-20T23:25:47.232Z,2.63
2022-12-20T23:28:16.061Z,4.40
2022-12-20T23:30:46.621Z,4.68
2022-12-20T23:33:15.510Z,2.95
2022-12-20T23:35:44.947Z,4.50
2022-12-20T23:38:12.524Z,2.50
2022-12-20T23:40:42.349Z,3.72
2022-12-20T23:43:09.795Z,2.47
2022-12-20T23:45:39.246Z,4.10
2022-12-20T23:48:08.577Z,3.70
2022-12-20T23:50:35.841Z,3.17
2022-12-20T23:53:02.985Z,3.30
2022-12-20T23:55:30.236Z,2.42
2022-12-20T23:57:57.128Z,2.42
